Terminal Aerodrome Forecast
Issued by NWS

Home | Current Version | Previous Version | Text Only | Print | Product List | Glossary On
Versions: 1 2 3 4 5 6 7 8 9 10 11 12 13 14 15
000
FTUS43 KDTX 310500 RRA
TAFMBS
TAF
KMBS 310541Z 3106/0106 27005KT P6SM SCT060 BKN080
     FM311700 25009KT P6SM BKN045
     FM312300 23005KT P6SM SCT050=

USA.gov is the U.S. government's official web portal to all federal, state and local government web resources and services.